Pagina principale
METAR-TAF:

METAR-TAF

Aeroporti :

Berlin, New Hampshire, Stati Uniti

latitudine: 44-34-34N, longitudine: 071-10-43W, altezza: 353 m

Osservazione

Il bollettino è stato emesso 1 ora e 12 minuti fa, alle 13:52 UTC
Vento calmo
Temperature 2°C
Umidità 93%
Pressione 1019 hPa
Visibilità: 16.1 km
Cielo sereno

METAR: KBML 151352Z AUTO 00000KT 10SM CLR 02/01 A3008 RMK AO2 SLP199 T00170011

Ora: 11:04 (15:04 UTC)


TAF: mancante

Osservazioni e previsioni meteorologiche di più di 4000 aeroporti (messaggi METAR e TAF).

Le stazioni disponibili sono rappresentate dai dischi gialli e rossi sulla carta.

Puntare il mouse per vedere il nome della stazione.

Clicca sopra per visualizzare le osservazioni e previsioni meteorologiche.

Per cambiare la mappa : fare clic sui pulsanti verdi con una croce nera per ingrandire, il pulsante verde con un trattino per diminuire, o sulla freccia verde per le mappe adiacenti.


METAR-TAF: